Time;durP1;ratioP1;P1;durP2;ratioP2;P2;SDS_P1;SDS_P2;PMS_P1;PMS_P2;Temp;Humidity;BMP_temperature;BMP_pressure;BME280_temperature;BME280_humidity;BME280_pressure;Samples;Min_cycle;Max_cycle;Signal;HPM_P1;HPM_P2
2022/06/16 00:01:36;;;;;;;;;16.33;14.33;;;;;39.00;18.25;101243.59;5096596;27;45357;-75
2022/06/16 00:04:01;;;;;;;;;13.00;12.00;;;;;39.09;18.25;101248.28;5096807;27;45544;-75
2022/06/16 00:06:27;;;;;;;;;13.00;13.00;;;;;38.90;17.91;101238.91;5095983;27;45484;-74
2022/06/16 00:08:52;;;;;;;;;17.33;15.00;;;;;39.02;18.25;101224.94;5097042;27;45467;-75
2022/06/16 00:11:18;;;;;;;;;14.00;13.67;;;;;39.02;18.75;101241.56;5096851;27;46283;-75
2022/06/16 00:13:44;;;;;;;;;14.00;14.00;;;;;38.93;17.96;101248.84;5096711;27;45531;-75
2022/06/16 00:16:10;;;;;;;;;17.00;14.00;;;;;38.76;18.49;101229.13;5112422;27;45584;-74
2022/06/16 00:18:36;;;;;;;;;17.33;12.67;;;;;38.83;18.43;101254.38;5096494;27;45483;-75
2022/06/16 00:21:02;;;;;;;;;15.67;12.67;;;;;38.71;18.95;101250.88;5096592;27;45393;-75
2022/06/16 00:23:28;;;;;;;;;16.33;13.00;;;;;38.53;18.80;101242.31;5096747;27;45372;-74
2022/06/16 00:25:53;;;;;;;;;12.67;12.67;;;;;38.48;18.53;101250.19;5096553;27;45475;-74
2022/06/16 00:28:19;;;;;;;;;13.00;13.00;;;;;38.60;18.66;101249.06;5096687;27;45435;-74
2022/06/16 00:30:44;;;;;;;;;15.67;15.67;;;;;38.60;19.38;101250.97;5096395;27;46226;-75
2022/06/16 00:33:09;;;;;;;;;15.67;15.00;;;;;38.63;19.24;101274.75;5096362;27;45406;-75
2022/06/16 00:35:35;;;;;;;;;17.00;14.00;;;;;38.57;19.04;101265.09;5096723;27;45388;-75
2022/06/16 00:38:00;;;;;;;;;17.00;15.00;;;;;38.41;19.12;101265.63;5096586;27;45472;-75
2022/06/16 00:40:26;;;;;;;;;18.00;16.67;;;;;38.43;19.05;101255.28;5096387;27;46508;-75
2022/06/16 00:42:51;;;;;;;;;16.00;15.00;;;;;38.36;19.59;101265.19;5096574;27;45268;-75
2022/06/16 00:45:47;;;;;;;;;20.00;18.67;;;;;38.42;19.73;101286.78;5096140;27;45390;-75
2022/06/16 00:48:32;;;;;;;;;14.00;14.00;;;;;38.40;19.37;101292.47;5095850;27;45380;-75
2022/06/16 00:51:10;;;;;;;;;13.00;13.00;;;;;38.33;19.20;101290.38;5095706;27;46068;-75
2022/06/16 00:53:37;;;;;;;;;15.00;14.00;;;;;38.23;19.39;101277.38;5111888;27;45667;-74
2022/06/16 00:56:04;;;;;;;;;14.33;14.33;;;;;38.24;19.78;101298.53;5095117;27;45536;-75
2022/06/16 00:58:32;;;;;;;;;10.33;10.33;;;;;38.04;19.89;101280.91;5096298;27;45486;-75
2022/06/16 01:00:58;;;;;;;;;15.33;15.33;;;;;37.98;20.13;101294.44;5095633;27;45462;-75
2022/06/16 01:06:21;;;;;;;;;15.00;13.33;;;;;38.17;19.64;101307.50;5096030;27;45318;-75
2022/06/16 01:08:50;;;;;;;;;15.33;13.00;;;;;38.01;19.39;101302.47;5096220;27;45347;-75
2022/06/16 01:14:40;;;;;;;;;16.33;14.67;;;;;37.88;19.90;101297.16;5095442;27;45406;-75
2022/06/16 01:17:19;;;;;;;;;15.33;13.33;;;;;37.91;19.78;101306.06;5035771;28;45412;-75
2022/06/16 01:20:02;;;;;;;;;17.33;15.00;;;;;38.04;20.07;101316.03;5052837;28;45573;-74
2022/06/16 01:22:51;;;;;;;;;13.00;12.00;;;;;38.03;19.86;101325.34;5052687;28;45487;-75
2022/06/16 01:25:33;;;;;;;;;12.33;12.33;;;;;38.03;20.27;101329.03;5052982;28;45470;-75
2022/06/16 01:28:25;;;;;;;;;14.00;14.00;;;;;37.90;20.54;101322.81;5053078;28;45308;-75
2022/06/16 01:31:04;;;;;;;;;13.67;13.00;;;;;38.00;20.43;101331.19;5035486;28;45419;-75
2022/06/16 01:33:57;;;;;;;;;14.33;13.00;;;;;37.72;20.49;101330.81;5052801;28;46647;-75
2022/06/16 01:37:14;;;;;;;;;12.00;10.33;;;;;37.39;20.94;101321.66;5052754;28;45526;-75
2022/06/16 01:39:54;;;;;;;;;16.00;13.00;;;;;37.48;20.16;101331.94;5051572;28;45617;-74
2022/06/16 01:42:37;;;;;;;;;14.00;14.00;;;;;37.64;20.14;101333.38;5052627;28;45650;-75
2022/06/16 01:45:20;;;;;;;;;13.33;13.33;;;;;37.55;20.79;101344.25;5052053;28;45665;-74
2022/06/16 01:47:50;;;;;;;;;13.00;13.00;;;;;37.58;20.62;101335.69;5052634;28;45458;-75
2022/06/16 01:50:26;;;;;;;;;12.67;11.67;;;;;37.64;21.01;101338.91;5035442;28;45316;-75
2022/06/16 01:53:06;;;;;;;;;12.67;12.67;;;;;37.85;20.79;101347.25;5052711;28;45478;-75
2022/06/16 01:55:38;;;;;;;;;14.67;14.67;;;;;37.72;20.76;101364.03;5095378;27;45433;-75
2022/06/16 01:58:10;;;;;;;;;16.33;13.33;;;;;37.69;20.34;101361.53;5095001;27;45380;-74
2022/06/16 02:00:36;;;;;;;;;13.33;13.33;;;;;37.47;21.31;101341.25;5099035;27;45486;-74
2022/06/16 02:03:10;;;;;;;;;14.00;13.33;;;;;37.56;20.63;101365.38;5099019;27;45421;-75
2022/06/16 02:05:43;;;;;;;;;17.67;14.67;;;;;37.58;21.19;101368.00;5098750;27;46531;-75
2022/06/16 02:08:15;;;;;;;;;14.00;12.00;;;;;37.46;21.03;101358.00;5098822;27;45392;-75
2022/06/16 02:10:48;;;;;;;;;15.33;14.33;;;;;37.42;20.70;101362.91;5097783;27;45433;-75
2022/06/16 02:13:19;;;;;;;;;14.33;11.33;;;;;37.50;20.74;101360.38;5098238;27;45495;-75
2022/06/16 02:15:59;;;;;;;;;15.33;14.00;;;;;37.52;20.76;101379.59;5098526;27;45512;-75
2022/06/16 02:18:29;;;;;;;;;15.67;14.00;;;;;37.44;20.94;101369.19;5098432;27;45480;-74
2022/06/16 02:21:21;;;;;;;;;13.33;12.67;;;;;37.47;21.00;101368.03;5098902;27;45503;-74
2022/06/16 02:23:47;;;;;;;;;15.00;14.00;;;;;37.50;20.94;101373.34;5097412;27;45373;-75
2022/06/16 02:26:13;;;;;;;;;13.67;12.67;;;;;37.45;20.63;101361.78;5098356;27;46223;-75
2022/06/16 02:28:52;;;;;;;;;17.00;15.33;;;;;37.53;21.34;101360.09;5097089;27;45405;-75
2022/06/16 02:31:21;;;;;;;;;15.67;15.67;;;;;37.59;20.78;101381.69;5097399;27;45523;-75
2022/06/16 02:34:08;;;;;;;;;16.33;14.00;;;;;37.57;20.75;101372.66;5098560;27;45393;-75
2022/06/16 02:36:41;;;;;;;;;13.33;13.00;;;;;37.47;20.95;101366.19;5098263;27;45536;-75
2022/06/16 02:39:18;;;;;;;;;16.00;15.00;;;;;37.62;21.33;101377.78;5098332;27;45410;-75
2022/06/16 02:42:16;;;;;;;;;16.33;16.33;;;;;37.65;21.29;101385.88;5114110;27;45366;-75
2022/06/16 02:45:03;;;;;;;;;15.00;13.00;;;;;37.63;21.26;101387.88;5097279;27;45454;-67
2022/06/16 02:47:58;;;;;;;;;13.00;12.67;;;;;37.46;21.31;101363.53;5098055;27;46046;-71
2022/06/16 02:51:00;;;;;;;;;13.00;13.00;;;;;37.59;20.98;101389.13;5096327;27;45615;-71
2022/06/16 02:56:52;;;;;;;;;16.00;14.33;;;;;37.52;21.02;101382.38;5104639;27;45568;-72
2022/06/16 02:59:21;;;;;;;;;16.00;16.00;;;;;37.47;20.96;101381.88;5096944;27;46277;-74
2022/06/16 03:01:49;;;;;;;;;18.00;17.33;;;;;37.47;21.78;101385.56;5105312;27;45405;-72
2022/06/16 03:04:17;;;;;;;;;16.67;13.33;;;;;37.32;21.11;101375.78;5101254;27;45425;-72
2022/06/16 03:06:43;;;;;;;;;18.00;16.33;;;;;37.31;21.09;101387.84;5096217;27;45615;-72
2022/06/16 03:09:09;;;;;;;;;16.67;15.33;;;;;37.35;21.19;101395.75;5097482;27;45509;-72
2022/06/16 03:11:36;;;;;;;;;19.33;17.67;;;;;37.38;21.06;101400.16;5097149;27;45251;-72
2022/06/16 03:14:03;;;;;;;;;18.00;17.00;;;;;37.33;21.53;101385.81;5097806;27;45478;-72
2022/06/16 03:16:28;;;;;;;;;15.00;15.00;;;;;37.36;21.75;101407.72;5097834;27;45285;-72
2022/06/16 03:18:53;;;;;;;;;17.33;17.00;;;;;37.47;21.27;101401.25;5097501;27;45915;-72
2022/06/16 03:21:19;;;;;;;;;16.33;16.33;;;;;37.51;21.61;101398.13;5096378;27;45399;-72
2022/06/16 03:23:45;;;;;;;;;14.00;13.33;;;;;37.47;20.98;101413.22;5097759;27;45430;-71
2022/06/16 03:26:10;;;;;;;;;21.33;18.33;;;;;37.45;21.58;101400.53;5097332;27;45614;-72
2022/06/16 03:28:36;;;;;;;;;19.67;16.67;;;;;37.45;21.35;101406.94;5097427;27;45454;-72
2022/06/16 03:31:02;;;;;;;;;18.33;18.00;;;;;37.49;21.31;101413.97;5097591;27;45515;-72
2022/06/16 03:33:27;;;;;;;;;17.33;16.00;;;;;37.37;21.15;101410.38;5097572;27;45677;-72
2022/06/16 03:35:53;;;;;;;;;14.33;14.00;;;;;37.36;21.21;101408.59;5097423;27;45357;-72
2022/06/16 03:38:27;;;;;;;;;20.33;17.33;;;;;37.29;21.97;101412.91;5097233;27;46273;-72
2022/06/16 03:40:52;;;;;;;;;17.33;17.00;;;;;37.23;21.36;101405.97;5097175;27;45308;-72
2022/06/16 03:43:18;;;;;;;;;15.67;14.00;;;;;37.18;21.79;101411.00;5097329;27;45754;-72
2022/06/16 03:45:43;;;;;;;;;17.00;16.00;;;;;37.24;21.83;101421.56;5097486;27;45342;-72
2022/06/16 03:48:09;;;;;;;;;17.33;16.33;;;;;37.27;21.34;101414.00;5097403;27;45745;-72
2022/06/16 03:50:34;;;;;;;;;16.00;16.00;;;;;37.36;20.91;101418.81;5097166;27;45539;-72
2022/06/16 03:52:59;;;;;;;;;14.67;14.67;;;;;37.18;21.15;101418.44;5097158;27;45467;-72
2022/06/16 03:55:25;;;;;;;;;17.67;17.67;;;;;37.23;21.10;101410.59;5096900;27;45823;-72
2022/06/16 03:57:52;;;;;;;;;19.33;15.67;;;;;37.38;21.12;101428.69;5096797;27;46677;-72
2022/06/16 04:00:19;;;;;;;;;18.00;17.00;;;;;37.36;21.47;101419.66;5096708;27;45571;-72
2022/06/16 04:02:45;;;;;;;;;17.33;16.33;;;;;37.39;21.58;101424.06;5097142;27;45508;-72
2022/06/16 04:05:13;;;;;;;;;15.67;14.00;;;;;37.38;21.23;101434.25;5096875;27;45579;-72
2022/06/16 04:07:38;;;;;;;;;19.00;16.67;;;;;37.22;21.30;101426.31;5096524;27;45516;-72
2022/06/16 04:10:06;;;;;;;;;19.67;18.33;;;;;37.29;21.55;101439.69;5096588;27;45527;-72
2022/06/16 04:12:31;;;;;;;;;15.67;15.67;;;;;37.32;21.34;101434.78;5096530;27;45418;-72
2022/06/16 04:14:57;;;;;;;;;18.67;17.67;;;;;37.27;21.25;101420.44;5096722;27;45360;-72
2022/06/16 04:17:23;;;;;;;;;18.00;17.33;;;;;37.27;20.98;101425.06;5096548;27;45996;-72
2022/06/16 04:22:32;;;;;;;;;19.00;16.33;;;;;37.29;20.75;101431.41;5095729;27;45478;-72
2022/06/16 04:24:58;;;;;;;;;16.67;15.33;;;;;37.43;21.20;101433.88;5096308;27;45478;-72
2022/06/16 04:27:23;;;;;;;;;13.00;13.00;;;;;37.63;21.18;101437.69;5096355;27;45354;-72
2022/06/16 04:29:51;;;;;;;;;19.33;19.33;;;;;37.53;20.77;101436.75;5096439;27;45416;-72
2022/06/16 04:32:16;;;;;;;;;21.00;17.33;;;;;37.51;21.35;101447.94;5095049;27;45356;-72
2022/06/16 04:34:42;;;;;;;;;17.33;16.67;;;;;37.43;21.43;101442.19;5096338;27;45439;-72
2022/06/16 04:37:08;;;;;;;;;19.00;19.00;;;;;37.45;21.14;101440.16;5095863;27;46506;-72
2022/06/16 04:39:33;;;;;;;;;15.33;14.00;;;;;37.55;21.00;101443.00;5096129;27;45213;-71
2022/06/16 04:41:58;;;;;;;;;12.67;12.67;;;;;37.60;20.78;101454.56;5096438;27;45337;-71
2022/06/16 04:44:24;;;;;;;;;20.67;18.67;;;;;37.51;21.24;101449.81;5096096;27;45499;-71
2022/06/16 04:46:49;;;;;;;;;16.00;15.00;;;;;37.63;20.86;101458.97;5096158;27;46287;-71
2022/06/16 04:49:15;;;;;;;;;16.00;16.00;;;;;37.64;20.90;101467.16;5094716;27;45570;-71
2022/06/16 04:51:41;;;;;;;;;17.67;15.33;;;;;37.60;20.70;101449.03;5095809;27;45373;-72
2022/06/16 04:54:06;;;;;;;;;17.67;16.00;;;;;37.75;21.21;101467.16;5095811;27;45366;-71
2022/06/16 04:56:32;;;;;;;;;18.67;17.67;;;;;37.78;20.59;101466.00;5095824;27;46612;-71
2022/06/16 04:58:57;;;;;;;;;19.00;18.00;;;;;37.91;20.66;101477.78;5095861;27;47515;-71
2022/06/16 05:01:23;;;;;;;;;19.33;18.33;;;;;37.97;20.35;101478.28;5095916;27;45441;-71
2022/06/16 05:03:49;;;;;;;;;17.67;15.67;;;;;37.91;20.25;101463.94;5096010;27;45386;-71
2022/06/16 05:06:15;;;;;;;;;15.00;15.00;;;;;37.98;20.31;101477.25;5095464;27;46473;-71
2022/06/16 05:08:41;;;;;;;;;20.67;17.00;;;;;37.97;20.23;101478.28;5093847;27;45561;-72
2022/06/16 05:11:06;;;;;;;;;23.00;19.67;;;;;37.87;20.73;101473.50;5095804;27;45425;-71
2022/06/16 05:13:32;;;;;;;;;21.33;17.33;;;;;37.96;20.44;101487.59;5100667;27;45385;-71
2022/06/16 05:15:57;;;;;;;;;19.33;19.33;;;;;38.04;19.99;101490.56;5116328;27;45549;-72
2022/06/16 05:18:23;;;;;;;;;20.67;18.67;;;;;37.96;20.76;101482.03;5111283;27;45476;-71
2022/06/16 05:20:48;;;;;;;;;16.67;16.67;;;;;37.93;19.94;101484.06;5095580;27;45628;-72
2022/06/16 05:23:13;;;;;;;;;21.00;17.33;;;;;38.08;20.42;101503.16;5095730;27;45517;-71
2022/06/16 05:25:40;;;;;;;;;19.00;17.67;;;;;38.13;20.58;101499.97;5094010;27;46985;-71
2022/06/16 05:28:07;;;;;;;;;18.33;18.33;;;;;38.15;19.74;101497.97;5095648;27;45437;-72
2022/06/16 05:30:33;;;;;;;;;17.67;15.33;;;;;38.10;20.70;101515.88;5095401;27;45429;-71
2022/06/16 05:32:59;;;;;;;;;19.67;19.33;;;;;37.99;20.69;101528.84;5096252;27;45385;-72
2022/06/16 05:35:25;;;;;;;;;21.33;19.00;;;;;37.96;20.92;101529.13;5097281;27;47195;-72
2022/06/16 05:37:50;;;;;;;;;20.33;20.00;;;;;38.01;20.06;101540.72;5097576;27;45397;-73
2022/06/16 05:40:16;;;;;;;;;20.67;18.67;;;;;38.10;20.67;101542.66;5097804;27;45799;-72
2022/06/16 05:42:41;;;;;;;;;18.33;17.00;;;;;37.99;20.17;101549.16;5099003;27;45432;-73
2022/06/16 05:45:08;;;;;;;;;21.33;19.33;;;;;37.89;20.79;101534.31;5098927;27;45359;-73
2022/06/16 05:47:36;;;;;;;;;20.33;20.33;;;;;37.56;20.75;101517.63;5098698;27;45255;-73
2022/06/16 05:50:03;;;;;;;;;20.33;18.33;;;;;37.48;20.48;101550.59;5098436;27;45337;-75
2022/06/16 05:52:28;;;;;;;;;22.00;19.50;;;;;37.49;20.93;101557.91;5098698;27;45522;-71
2022/06/16 05:54:54;;;;;;;;;20.67;19.33;;;;;37.48;20.52;101555.25;5098852;27;46425;-72
2022/06/16 05:57:19;;;;;;;;;20.33;19.33;;;;;37.59;20.36;101561.66;5099083;27;45358;-72
2022/06/16 05:59:45;;;;;;;;;24.00;18.33;;;;;37.83;20.53;101574.47;5098836;27;45613;-72
2022/06/16 06:02:14;;;;;;;;;21.00;20.33;;;;;37.71;20.28;101551.47;5098908;27;45394;-74
2022/06/16 06:04:39;;;;;;;;;23.33;20.67;;;;;37.64;20.17;101554.84;5098303;27;46301;-73
2022/06/16 06:07:05;;;;;;;;;20.50;20.50;;;;;37.77;20.83;101572.25;5098053;27;45426;-73
2022/06/16 06:18:06;;;;;;;;;17.67;16.67;;;;;38.09;20.17;101577.81;5096553;27;45766;-73
2022/06/16 06:20:31;;;;;;;;;17.33;17.33;;;;;38.01;19.56;101565.63;5095942;27;45445;-73
2022/06/16 06:22:57;;;;;;;;;18.67;18.67;;;;;37.84;19.83;101590.09;5096424;27;45708;-73
2022/06/16 06:25:23;;;;;;;;;19.67;19.67;;;;;37.85;20.42;101591.88;5096473;27;46223;-74
2022/06/16 06:27:49;;;;;;;;;17.00;17.00;;;;;37.71;19.83;101581.91;5096928;27;45465;-73
2022/06/16 06:30:29;;;;;;;;;21.67;20.33;;;;;37.84;19.96;101590.09;5097986;27;45349;-73
2022/06/16 06:32:56;;;;;;;;;16.33;15.33;;;;;37.73;20.11;101603.94;5098549;27;45381;-73
2022/06/16 06:35:22;;;;;;;;;18.33;17.67;;;;;37.65;20.02;101603.69;5097869;27;46402;-73
2022/06/16 06:37:49;;;;;;;;;18.67;18.00;;;;;37.74;20.12;101600.16;5097947;27;45415;-73
2022/06/16 06:40:25;;;;;;;;;20.33;18.33;;;;;37.68;19.86;101614.50;5098395;27;45482;-74
2022/06/16 06:42:50;;;;;;;;;19.00;19.00;;;;;37.52;19.44;101618.53;5098278;27;45380;-73
2022/06/16 06:45:17;;;;;;;;;15.67;15.67;;;;;37.47;19.58;101603.31;5097160;27;46305;-73
2022/06/16 06:47:42;;;;;;;;;17.00;17.00;;;;;37.45;20.10;101603.44;5097553;27;45543;-74
2022/06/16 06:50:17;;;;;;;;;13.00;13.00;;;;;37.56;20.06;101608.09;5098205;27;45440;-73
2022/06/16 06:52:42;;;;;;;;;17.67;17.00;;;;;37.43;19.63;101602.72;5098006;27;45517;-73
2022/06/16 06:55:08;;;;;;;;;18.33;17.33;;;;;37.48;19.64;101619.78;5097876;27;46381;-73
2022/06/16 06:57:33;;;;;;;;;15.00;15.00;;;;;37.47;19.19;101607.00;5098031;27;45490;-74
2022/06/16 06:59:59;;;;;;;;;18.33;15.00;;;;;37.52;20.29;101610.22;5098173;27;45720;-73
2022/06/16 07:02:24;;;;;;;;;15.33;14.00;;;;;37.84;19.67;101626.09;5097553;27;45519;-74
2022/06/16 07:04:50;;;;;;;;;15.67;15.67;;;;;38.10;19.37;101631.31;5097873;27;45809;-74
2022/06/16 07:07:21;;;;;;;;;12.00;11.00;;;;;37.93;18.88;101619.81;5098001;27;45668;-74
2022/06/16 07:09:47;;;;;;;;;17.00;14.67;;;;;37.72;19.12;101624.31;5097944;27;45417;-72
2022/06/16 07:12:13;;;;;;;;;16.67;16.67;;;;;37.72;19.38;101625.22;5097679;27;45355;-72
2022/06/16 07:14:44;;;;;;;;;16.00;15.67;;;;;37.74;19.45;101631.53;5097264;27;46459;-72
2022/06/16 07:17:11;;;;;;;;;11.00;11.00;;;;;37.97;19.61;101644.47;5097301;27;45428;-72
2022/06/16 07:19:36;;;;;;;;;17.00;15.00;;;;;38.00;18.98;101635.91;5097368;27;45694;-72
2022/06/16 07:22:04;;;;;;;;;10.67;10.67;;;;;38.14;19.20;101651.34;5096220;27;45584;-73
2022/06/16 07:24:29;;;;;;;;;15.00;14.33;;;;;38.35;19.00;101655.09;5097330;27;46330;-73
2022/06/16 07:26:54;;;;;;;;;15.00;12.67;;;;;38.37;18.64;101643.88;5095975;27;52756;-74
2022/06/16 07:29:20;;;;;;;;;19.33;19.00;;;;;38.26;19.02;101659.53;5097807;27;45504;-74
2022/06/16 07:31:45;;;;;;;;;13.00;12.33;;;;;38.08;19.74;101647.22;5097083;27;45609;-74
2022/06/16 07:34:11;;;;;;;;;15.67;14.33;;;;;38.21;18.49;101667.34;5096844;27;51795;-74
2022/06/16 07:36:37;;;;;;;;;12.33;12.33;;;;;38.17;18.78;101668.59;5097247;27;45392;-74
2022/06/16 07:39:04;;;;;;;;;18.67;18.67;;;;;38.40;18.40;101663.91;5097436;27;45392;-74
2022/06/16 07:41:32;;;;;;;;;13.00;12.00;;;;;38.45;18.92;101663.50;5097415;27;45436;-74
2022/06/16 07:43:58;;;;;;;;;18.33;16.33;;;;;38.55;18.95;101672.81;5097047;27;45950;-74
2022/06/16 07:46:24;;;;;;;;;15.00;14.00;;;;;38.43;18.43;101657.22;5096694;27;45425;-74
2022/06/16 07:48:51;;;;;;;;;14.00;14.00;;;;;38.48;18.91;101667.91;5097045;27;45347;-74
2022/06/16 07:51:17;;;;;;;;;12.33;11.67;;;;;38.62;18.33;101650.97;5097358;27;45496;-74
2022/06/16 07:53:43;;;;;;;;;14.33;13.33;;;;;38.49;18.55;101656.69;5096689;27;45468;-74
2022/06/16 07:56:08;;;;;;;;;13.00;12.00;;;;;38.67;18.63;101664.44;5096398;27;45398;-74
2022/06/16 07:58:34;;;;;;;;;14.00;12.67;;;;;38.56;18.13;101669.00;5096545;27;45340;-74
2022/06/16 08:01:00;;;;;;;;;15.00;13.00;;;;;38.51;18.24;101664.88;5095572;27;45381;-74
2022/06/16 08:03:29;;;;;;;;;12.33;11.67;;;;;38.65;17.94;101658.13;5096943;27;45549;-74
2022/06/16 08:05:56;;;;;;;;;14.00;12.00;;;;;38.74;17.86;101663.81;5096876;27;45488;-74
2022/06/16 08:08:23;;;;;;;;;12.00;11.00;;;;;38.48;18.11;101660.47;5097041;27;45378;-74
2022/06/16 08:10:50;;;;;;;;;10.00;10.00;;;;;38.56;17.43;101655.16;5096867;27;45342;-74
2022/06/16 08:13:15;;;;;;;;;11.00;11.00;;;;;38.56;17.50;101665.38;5096671;27;46501;-74
2022/06/16 08:15:45;;;;;;;;;13.67;11.67;;;;;38.56;17.54;101670.91;5096337;27;45501;-73
2022/06/16 08:18:12;;;;;;;;;13.67;12.33;;;;;38.55;17.22;101661.72;5096745;27;45306;-74
2022/06/16 08:20:37;;;;;;;;;22.33;22.33;;;;;38.76;17.46;101658.13;5095027;27;45453;-73
2022/06/16 08:23:03;;;;;;;;;12.00;12.00;;;;;38.88;16.64;101667.28;5096431;27;45464;-73
2022/06/16 08:25:30;;;;;;;;;11.00;10.00;;;;;38.89;17.35;101664.38;5096720;27;45373;-74
2022/06/16 08:27:56;;;;;;;;;10.00;8.00;;;;;38.82;16.41;101662.25;5096972;27;45436;-74
2022/06/16 08:30:23;;;;;;;;;13.33;10.67;;;;;38.92;17.22;101680.75;5096475;27;45353;-74
2022/06/16 08:32:49;;;;;;;;;13.00;10.33;;;;;38.94;16.47;101662.03;5096190;27;45522;-74
2022/06/16 08:35:14;;;;;;;;;9.00;9.00;;;;;38.91;16.54;101667.88;5096335;27;45335;-73
2022/06/16 08:37:39;;;;;;;;;10.33;10.33;;;;;39.02;16.55;101677.16;5095007;27;45330;-74
2022/06/16 08:40:06;;;;;;;;;10.00;9.67;;;;;39.03;16.71;101665.94;5096659;27;45370;-74
2022/06/16 08:42:44;;;;;;;;;9.00;9.00;;;;;39.09;16.20;101672.84;5096146;27;45628;-74
2022/06/16 08:45:31;;;;;;;;;15.33;11.00;;;;;39.04;16.29;101673.22;5095613;27;45377;-74
2022/06/16 08:48:02;;;;;;;;;10.67;8.67;;;;;39.12;16.45;101678.09;5096105;27;45356;-74
2022/06/16 08:50:36;;;;;;;;;10.67;10.67;;;;;39.13;15.86;101660.44;5095918;27;45530;-74
2022/06/16 08:53:20;;;;;;;;;8.00;8.00;;;;;39.19;16.38;101684.03;5095942;27;46528;-74
2022/06/16 08:55:56;;;;;;;;;11.00;8.67;;;;;39.28;16.06;101681.31;5095694;27;45446;-74
2022/06/16 08:58:28;;;;;;;;;8.67;8.00;;;;;39.31;15.88;101691.25;5095866;27;45541;-73
2022/06/16 09:00:57;;;;;;;;;11.67;10.00;;;;;39.22;15.88;101683.75;5111738;27;45421;-73
2022/06/16 09:03:39;;;;;;;;;11.00;9.00;;;;;39.36;16.11;101671.41;5095953;27;45435;-73
2022/06/16 09:06:32;;;;;;;;;11.33;9.00;;;;;39.71;16.11;101681.28;5096151;27;45405;-74
2022/06/16 09:10:14;;;;;;;;;13.00;12.00;;;;;39.88;16.09;101677.81;5095500;27;45360;-73
2022/06/16 09:12:19;;;;;;;;;10.00;9.00;;;;;39.61;15.55;101662.66;5095933;27;45670;-74
2022/06/16 09:15:11;;;;;;;;;8.67;8.33;;;;;39.85;16.09;101683.66;5095240;27;46015;-73
2022/06/16 09:17:59;;;;;;;;;9.33;8.67;;;;;39.98;15.57;101675.06;5095601;27;45521;-73
2022/06/16 09:20:40;;;;;;;;;4.33;4.33;;;;;39.97;15.67;101660.31;5095557;27;45500;-74
2022/06/16 09:23:42;;;;;;;;;8.00;8.00;;;;;40.08;15.48;101669.56;5111701;27;45606;-73
2022/06/16 09:26:25;;;;;;;;;9.67;7.00;;;;;40.18;15.72;101672.38;5094454;27;47818;-73
2022/06/16 09:29:14;;;;;;;;;10.00;8.67;;;;;40.19;15.16;101669.44;5095118;27;45484;-73
2022/06/16 09:31:51;;;;;;;;;10.33;8.33;;;;;40.16;14.92;101686.41;5095483;27;45244;-74
2022/06/16 09:34:43;;;;;;;;;7.00;7.00;;;;;40.12;14.58;101685.81;5094257;27;45490;-73
2022/06/16 09:37:21;;;;;;;;;8.00;7.67;;;;;40.03;14.83;101683.91;5095448;27;45628;-74
2022/06/16 09:39:58;;;;;;;;;6.33;6.00;;;;;40.17;14.97;101670.63;5095423;27;45583;-73
2022/06/16 09:42:37;;;;;;;;;8.00;6.00;;;;;39.97;14.33;101676.09;5095223;27;45408;-73
2022/06/16 09:45:08;;;;;;;;;7.67;7.00;;;;;40.17;14.27;101690.06;5095615;27;45386;-73
2022/06/16 09:47:53;;;;;;;;;8.67;8.67;;;;;40.26;14.14;101658.63;5110923;27;46280;-73
2022/06/16 09:50:45;;;;;;;;;7.00;7.00;;;;;40.46;14.27;101681.78;5094863;27;45330;-73
2022/06/16 09:53:24;;;;;;;;;6.00;6.00;;;;;40.61;14.07;101677.56;5090443;27;45445;-73
2022/06/16 09:55:51;;;;;;;;;6.33;6.33;;;;;40.45;14.09;101668.88;5095322;27;45568;-73
2022/06/16 09:58:31;;;;;;;;;6.67;6.67;;;;;40.37;14.49;101654.81;5094651;27;45385;-73
2022/06/16 10:00:59;;;;;;;;;7.33;7.00;;;;;40.47;14.19;101658.50;5093742;27;45908;-73
2022/06/16 10:04:00;;;;;;;;;7.00;5.00;;;;;40.49;14.08;101656.50;5095268;27;45780;-73
2022/06/16 10:07:14;;;;;;;;;6.33;5.00;;;;;40.37;14.34;101650.16;5095183;27;45177;-73
2022/06/16 10:09:55;;;;;;;;;6.67;6.67;;;;;40.53;14.15;101649.63;5094890;27;46169;-73
2022/06/16 10:12:35;;;;;;;;;6.33;6.33;;;;;40.50;14.12;101643.47;5094833;27;45489;-73
2022/06/16 10:15:25;;;;;;;;;20.00;20.00;;;;;40.66;14.39;101640.09;5093788;27;45422;-73
2022/06/16 10:17:54;;;;;;;;;9.00;9.00;;;;;40.84;14.37;101645.81;5094958;27;45421;-73
2022/06/16 10:20:21;;;;;;;;;11.67;9.00;;;;;40.91;14.61;101647.84;5096266;27;46306;-73
2022/06/16 10:23:01;;;;;;;;;5.00;5.00;;;;;41.00;14.23;101653.56;5098470;27;45452;-73
2022/06/16 10:25:34;;;;;;;;;8.67;8.00;;;;;41.09;14.32;101653.53;5097155;27;45412;-73
2022/06/16 10:28:16;;;;;;;;;7.67;7.67;;;;;41.16;14.39;101656.63;5098618;27;45454;-73
2022/06/16 10:30:41;;;;;;;;;7.33;7.33;;;;;41.08;14.13;101649.00;5098262;27;46437;-73
2022/06/16 10:33:20;;;;;;;;;8.00;7.33;;;;;41.15;14.71;101658.53;5098361;27;45401;-73
2022/06/16 10:35:56;;;;;;;;;10.00;9.00;;;;;41.16;14.35;101659.41;5098391;27;45448;-73
2022/06/16 10:38:43;;;;;;;;;9.00;7.67;;;;;41.35;14.75;101654.81;5098598;27;45630;-73
2022/06/16 10:41:30;;;;;;;;;10.00;8.00;;;;;41.35;14.40;101652.03;5096592;27;48345;-73
2022/06/16 10:43:59;;;;;;;;;8.33;8.00;;;;;41.43;14.40;101646.59;5098128;27;45354;-73
2022/06/16 10:46:31;;;;;;;;;8.67;7.33;;;;;41.39;14.11;101647.94;5098284;27;45543;-73
2022/06/16 10:49:01;;;;;;;;;8.67;8.67;;;;;41.18;13.84;101645.31;5096388;27;45568;-73
2022/06/16 10:51:29;;;;;;;;;8.33;7.67;;;;;41.08;13.57;101653.69;5098105;27;46625;-73
2022/06/16 10:54:30;;;;;;;;;9.00;7.67;;;;;41.27;14.44;101642.50;5097766;27;45461;-73
2022/06/16 10:57:11;;;;;;;;;9.67;8.00;;;;;41.47;13.71;101637.78;5097975;27;45327;-73
2022/06/16 10:59:42;;;;;;;;;8.33;7.67;;;;;41.33;14.32;101625.19;5096710;27;45628;-73
2022/06/16 11:02:22;;;;;;;;;9.00;8.00;;;;;41.50;13.82;101642.16;5097876;27;46206;-74
2022/06/16 11:05:03;;;;;;;;;10.00;10.00;;;;;41.61;13.88;101647.53;5097740;27;45535;-73
2022/06/16 11:07:35;;;;;;;;;12.00;12.00;;;;;41.51;13.35;101632.78;5098212;27;45414;-73
2022/06/16 11:10:05;;;;;;;;;13.00;13.00;;;;;41.59;13.96;101640.34;5097152;27;45568;-73
2022/06/16 11:12:32;;;;;;;;;7.67;7.67;;;;;41.59;12.79;101641.25;5096154;27;47230;-73
2022/06/16 11:15:04;;;;;;;;;7.33;6.33;;;;;41.63;13.50;101639.91;5097446;27;45428;-73
2022/06/16 11:17:36;;;;;;;;;8.67;8.00;;;;;41.64;13.30;101643.56;5097920;27;45451;-73
2022/06/16 11:20:32;;;;;;;;;6.00;6.00;;;;;41.71;13.62;101641.91;5097545;27;45325;-73
2022/06/16 11:22:58;;;;;;;;;6.33;6.33;;;;;41.81;13.32;101645.56;5097532;27;46457;-73
2022/06/16 11:25:35;;;;;;;;;6.00;5.67;;;;;41.64;13.30;101646.34;5097435;27;45393;-72
2022/06/16 11:28:13;;;;;;;;;6.00;6.00;;;;;41.80;13.25;101651.28;5097389;27;45223;-73
2022/06/16 11:30:43;;;;;;;;;7.33;6.00;;;;;41.76;13.77;101627.50;5097537;27;46091;-73
2022/06/16 11:37:05;;;;;;;;;6.33;6.33;;;;;42.10;13.77;101654.81;5097416;27;45342;-72
2022/06/16 11:39:48;;;;;;;;;7.00;6.00;;;;;42.19;13.98;101664.13;5078064;27;45816;-73
2022/06/16 11:42:30;;;;;;;;;7.33;6.00;;;;;42.15;13.72;101653.28;5113303;27;45413;-73
2022/06/16 11:45:14;;;;;;;;;8.00;6.00;;;;;42.11;14.11;101640.69;5096950;27;45463;-73
2022/06/16 11:48:11;;;;;;;;;6.67;5.67;;;;;42.32;14.35;101659.06;5095906;27;45497;-73
2022/06/16 11:50:51;;;;;;;;;7.00;7.00;;;;;42.35;13.20;101655.94;5096041;27;45445;-73
2022/06/16 11:53:47;;;;;;;;;6.67;6.67;;;;;42.31;13.06;101637.81;5097082;27;45342;-74
2022/06/16 11:56:33;;;;;;;;;8.00;6.67;;;;;42.04;11.99;101642.38;5097065;27;46551;-72
2022/06/16 11:59:11;;;;;;;;;5.67;5.67;;;;;41.78;12.87;101645.00;5096873;27;45429;-73